createdAt,value
2023-01-09T00:01:01.475Z,96620.66
2023-01-09T00:03:29.051Z,96616.78
2023-01-09T00:05:56.364Z,96618.88
2023-01-09T00:08:23.387Z,96616.78
2023-01-09T00:10:50.871Z,96614.56
2023-01-09T00:13:18.251Z,96610.41
2023-01-09T00:15:45.741Z,96609.06
2023-01-09T00:18:13.054Z,96602.84
2023-01-09T00:20:40.530Z,96607.94
2023-01-09T00:23:07.898Z,96603.41
2023-01-09T00:25:35.670Z,96600.91
2023-01-09T00:28:02.977Z,96600.63
2023-01-09T00:30:30.189Z,96599.00
2023-01-09T00:32:57.216Z,96591.94
2023-01-09T00:35:26.402Z,96596.06
2023-01-09T00:37:53.916Z,96596.50
2023-01-09T00:40:21.212Z,96594.84
2023-01-09T00:42:56.223Z,96597.31
2023-01-09T00:45:28.888Z,96599.00
2023-01-09T00:48:03.846Z,96594.53
2023-01-09T00:50:33.160Z,96605.97
2023-01-09T00:53:10.899Z,96615.16
2023-01-09T00:55:39.070Z,96608.88
2023-01-09T00:58:07.122Z,96618.31
2023-01-09T01:00:34.258Z,96614.69
2023-01-09T01:03:01.406Z,96609.91
2023-01-09T01:05:47.184Z,96602.22
2023-01-09T01:08:16.958Z,96603.06
2023-01-09T01:10:45.160Z,96596.47
2023-01-09T01:13:12.832Z,96592.94
2023-01-09T01:15:42.368Z,96600.22
2023-01-09T01:18:11.454Z,96605.47
2023-01-09T01:20:42.236Z,96602.47
2023-01-09T01:23:09.611Z,96601.50
2023-01-09T01:25:41.700Z,96601.53
2023-01-09T01:28:10.332Z,96590.03
2023-01-09T01:30:42.124Z,96594.75
2023-01-09T01:33:10.452Z,96588.53
2023-01-09T01:35:37.904Z,96585.56
2023-01-09T01:38:04.976Z,96584.91
2023-01-09T01:40:32.511Z,96585.72
2023-01-09T01:43:00.004Z,96581.88
2023-01-09T01:45:29.720Z,96589.56
2023-01-09T01:48:04.428Z,96583.53
2023-01-09T01:50:45.402Z,96586.16
2023-01-09T01:53:32.796Z,96577.97
2023-01-09T01:56:08.007Z,96584.44
2023-01-09T01:58:39.313Z,96582.16
2023-01-09T02:01:07.258Z,96579.97
2023-01-09T02:03:35.139Z,96585.59
2023-01-09T02:06:04.824Z,96582.56
2023-01-09T02:08:32.677Z,96576.78
2023-01-09T02:11:00.114Z,96593.22
2023-01-09T02:13:28.369Z,96583.53
2023-01-09T02:16:17.226Z,96582.38
2023-01-09T02:18:47.022Z,96586.59
2023-01-09T02:21:48.900Z,96580.56
2023-01-09T02:24:30.861Z,96581.81
2023-01-09T02:27:17.796Z,96583.56
2023-01-09T02:30:17.207Z,96572.28
2023-01-09T02:33:04.960Z,96577.97
2023-01-09T02:35:47.570Z,96566.28
2023-01-09T02:38:34.047Z,96568.66
2023-01-09T02:41:30.649Z,96563.03
2023-01-09T02:44:31.145Z,96558.06
2023-01-09T02:47:02.455Z,96553.19
2023-01-09T02:49:30.489Z,96556.38
2023-01-09T02:52:14.574Z,96556.03
2023-01-09T02:55:03.300Z,96552.00
2023-01-09T02:57:51.372Z,96560.44
2023-01-09T03:01:01.146Z,96585.66
2023-01-09T03:04:08.841Z,96579.66
2023-01-09T03:07:11.758Z,96591.72
2023-01-09T03:09:41.497Z,96584.78
2023-01-09T03:12:18.239Z,96580.09
2023-01-09T03:14:53.412Z,96585.00
2023-01-09T03:17:35.117Z,96597.38
2023-01-09T03:20:06.944Z,96608.31
2023-01-09T03:22:33.864Z,96609.63
2023-01-09T03:25:00.853Z,96610.16
2023-01-09T03:27:27.951Z,96624.72
2023-01-09T03:29:56.558Z,96618.06
2023-01-09T03:32:23.591Z,96622.22
2023-01-09T03:34:50.541Z,96615.56
2023-01-09T03:37:17.488Z,96616.44
2023-01-09T03:39:44.483Z,96623.66
2023-01-09T03:42:11.508Z,96629.88
2023-01-09T03:44:38.483Z,96633.47
2023-01-09T03:47:05.420Z,96634.47
2023-01-09T03:49:32.815Z,96643.72
2023-01-09T03:51:59.766Z,96647.88
2023-01-09T03:54:26.744Z,96653.72
2023-01-09T03:56:53.753Z,96659.22
2023-01-09T03:59:20.863Z,96668.66
2023-01-09T04:01:47.877Z,96668.81
2023-01-09T04:04:15.426Z,96684.41
2023-01-09T04:06:42.463Z,96694.81
2023-01-09T04:09:09.540Z,96706.84
2023-01-09T04:11:36.478Z,96714.44
2023-01-09T04:14:03.904Z,96725.38
2023-01-09T04:16:31.330Z,96745.72
2023-01-09T04:18:58.739Z,96772.94
2023-01-09T04:21:26.175Z,96784.84
2023-01-09T04:23:53.519Z,96788.25
2023-01-09T04:26:20.931Z,96803.97
2023-01-09T04:28:48.768Z,96809.63
2023-01-09T04:31:16.196Z,96819.09
2023-01-09T04:33:43.562Z,96832.75
2023-01-09T04:36:11.257Z,96836.63
2023-01-09T04:38:38.617Z,96836.03
2023-01-09T04:41:06.165Z,96833.41
2023-01-09T04:43:33.474Z,96852.44
2023-01-09T04:46:00.855Z,96848.94
2023-01-09T04:48:28.289Z,96854.19
2023-01-09T04:50:55.637Z,96858.72
2023-01-09T04:53:23.011Z,96863.25
2023-01-09T04:55:50.340Z,96865.06
2023-01-09T04:58:17.747Z,96864.34
2023-01-09T05:00:45.185Z,96876.75
2023-01-09T05:03:12.523Z,96873.97
2023-01-09T05:05:39.846Z,96880.16
2023-01-09T05:08:07.442Z,96880.41
2023-01-09T05:10:34.802Z,96871.00
2023-01-09T05:13:02.130Z,96879.00
2023-01-09T05:15:31.028Z,96880.72
2023-01-09T05:17:58.433Z,96890.13
2023-01-09T05:20:25.787Z,96898.00
2023-01-09T05:22:53.165Z,96902.53
2023-01-09T05:25:20.579Z,96904.13
2023-01-09T05:27:47.919Z,96915.69
2023-01-09T05:30:17.992Z,96924.72
2023-01-09T05:32:45.701Z,96925.28
2023-01-09T05:35:13.090Z,96942.69
2023-01-09T05:37:40.442Z,96936.75
2023-01-09T05:40:08.385Z,96937.56
2023-01-09T05:42:35.769Z,96936.00
2023-01-09T05:45:03.309Z,96945.53
2023-01-09T05:47:30.633Z,96951.19
2023-01-09T05:49:57.958Z,96963.59
2023-01-09T05:52:25.501Z,96972.53
2023-01-09T05:54:52.866Z,96983.94
2023-01-09T05:57:20.308Z,96997.03
2023-01-09T05:59:47.663Z,96998.47
2023-01-09T06:02:15.108Z,96999.94
2023-01-09T06:04:43.863Z,97003.25
2023-01-09T06:07:11.382Z,96997.41
2023-01-09T06:09:39.249Z,97001.03
2023-01-09T06:12:06.935Z,97002.81
2023-01-09T06:14:34.378Z,97017.09
2023-01-09T06:17:01.709Z,97013.66
2023-01-09T06:19:28.698Z,97010.78
2023-01-09T06:21:55.702Z,97011.78
2023-01-09T06:24:22.708Z,97016.19
2023-01-09T06:26:49.653Z,97015.84
2023-01-09T06:29:16.658Z,97013.34
2023-01-09T06:31:43.601Z,97015.97
2023-01-09T06:34:10.656Z,97024.78
2023-01-09T06:36:37.603Z,97020.84
2023-01-09T06:39:04.616Z,97026.69
2023-01-09T06:41:31.612Z,97027.53
2023-01-09T06:43:59.049Z,97039.66
2023-01-09T06:46:26.407Z,97049.28
2023-01-09T06:48:53.773Z,97045.59
2023-01-09T06:51:21.383Z,97060.81
2023-01-09T06:53:48.707Z,97057.63
2023-01-09T06:56:16.075Z,97054.88
2023-01-09T06:58:43.090Z,97045.97
2023-01-09T07:01:10.535Z,97045.97
2023-01-09T07:03:37.615Z,97055.56
2023-01-09T07:06:05.067Z,97058.19
2023-01-09T07:08:33.113Z,97051.41
2023-01-09T07:11:00.035Z,97057.22
2023-01-09T07:13:27.488Z,97064.84
2023-01-09T07:15:54.901Z,97063.28
2023-01-09T07:18:22.328Z,97066.13
2023-01-09T07:20:49.746Z,97073.88
2023-01-09T07:23:18.795Z,97077.22
2023-01-09T07:25:46.371Z,97088.31
2023-01-09T07:28:13.798Z,97083.69
2023-01-09T07:30:41.163Z,97083.44
2023-01-09T07:33:08.544Z,97088.63
2023-01-09T07:35:35.902Z,97090.19
2023-01-09T07:38:03.229Z,97094.22
2023-01-09T07:40:30.608Z,97094.72
2023-01-09T07:42:57.940Z,97092.34
2023-01-09T07:45:25.308Z,97099.25
2023-01-09T07:47:52.694Z,97106.50
2023-01-09T07:50:20.469Z,97105.44
2023-01-09T07:52:47.858Z,97111.50
2023-01-09T07:55:17.374Z,97104.25
2023-01-09T07:57:50.152Z,97117.66
2023-01-09T08:00:18.537Z,97121.72
2023-01-09T08:02:45.490Z,97123.25
2023-01-09T08:05:14.834Z,97129.59
2023-01-09T08:07:42.886Z,97136.00
2023-01-09T08:10:10.696Z,97139.47
2023-01-09T08:12:37.803Z,97138.84
2023-01-09T08:15:05.300Z,97138.00
2023-01-09T08:17:32.351Z,97149.47
2023-01-09T08:19:59.265Z,97143.97
2023-01-09T08:22:26.274Z,97145.63
2023-01-09T08:24:53.203Z,97144.63
2023-01-09T08:27:20.187Z,97137.06
2023-01-09T08:29:47.136Z,97142.31
2023-01-09T08:32:14.496Z,97142.84
2023-01-09T08:34:41.820Z,97140.22
2023-01-09T08:37:09.184Z,97138.31
2023-01-09T08:39:36.597Z,97147.91
2023-01-09T08:42:22.278Z,97143.13
2023-01-09T08:45:08.177Z,97140.13
2023-01-09T08:47:35.592Z,97141.09
2023-01-09T08:50:04.311Z,97143.28
2023-01-09T08:52:31.785Z,97140.81
2023-01-09T08:54:59.088Z,97133.94
2023-01-09T08:57:26.535Z,97134.25
2023-01-09T08:59:53.926Z,97135.34
2023-01-09T09:02:21.008Z,97128.28
2023-01-09T09:04:51.620Z,97129.59
2023-01-09T09:07:26.366Z,97126.28
2023-01-09T09:09:54.500Z,97126.28
2023-01-09T09:12:22.595Z,97116.06
2023-01-09T09:15:08.413Z,97121.09
2023-01-09T09:17:35.944Z,97123.06
2023-01-09T09:20:03.387Z,97121.69
2023-01-09T09:22:31.040Z,97120.56
2023-01-09T09:24:58.465Z,97117.53
2023-01-09T09:27:25.782Z,97115.31
2023-01-09T09:29:53.166Z,97125.69
2023-01-09T09:32:20.475Z,97121.09
2023-01-09T09:34:47.772Z,97127.00
2023-01-09T09:37:15.134Z,97132.97
2023-01-09T09:39:42.454Z,97126.47
2023-01-09T09:42:40.141Z,97135.16
2023-01-09T09:45:22.838Z,97142.03
2023-01-09T09:47:53.606Z,97143.38
2023-01-09T09:50:36.139Z,97141.28
2023-01-09T09:53:32.419Z,97146.41
2023-01-09T09:55:59.722Z,97159.31
2023-01-09T09:58:42.056Z,97154.69
2023-01-09T10:01:11.475Z,97147.94
2023-01-09T10:03:46.206Z,97154.44
2023-01-09T10:06:33.403Z,97149.06
2023-01-09T10:09:06.585Z,97142.13
2023-01-09T10:11:55.456Z,97140.03
2023-01-09T10:14:24.771Z,97136.31
2023-01-09T10:16:58.283Z,97133.56
2023-01-09T10:19:36.047Z,97134.78
2023-01-09T10:22:24.384Z,97128.69
2023-01-09T10:25:27.574Z,97129.50
2023-01-09T10:28:27.327Z,97125.34
2023-01-09T10:31:15.547Z,97137.41
2023-01-09T10:33:48.798Z,97145.59
2023-01-09T10:36:21.875Z,97141.84
2023-01-09T10:38:52.323Z,97139.22
2023-01-09T10:41:38.389Z,97132.56
2023-01-09T10:44:33.416Z,97131.44
2023-01-09T10:47:01.345Z,97125.78
2023-01-09T10:49:29.099Z,97126.19
2023-01-09T10:52:11.410Z,97126.75
2023-01-09T10:54:42.201Z,97117.72
2023-01-09T10:57:31.667Z,97115.81
2023-01-09T10:59:59.038Z,97101.28
2023-01-09T11:02:32.272Z,97098.53
2023-01-09T11:04:59.679Z,97083.97
2023-01-09T11:07:37.922Z,97072.94
2023-01-09T11:10:08.150Z,97074.47
2023-01-09T11:12:36.538Z,97075.59
2023-01-09T11:15:28.788Z,97082.16
2023-01-09T11:18:19.721Z,97083.72
2023-01-09T11:20:47.247Z,97097.56
2023-01-09T11:23:34.323Z,97089.91
2023-01-09T11:26:02.909Z,97089.03
2023-01-09T11:28:30.609Z,97093.69
2023-01-09T11:31:00.353Z,97097.41
2023-01-09T11:33:36.446Z,97104.25
2023-01-09T11:36:10.795Z,97101.53
2023-01-09T11:38:58.296Z,97095.22
2023-01-09T11:41:31.149Z,97108.44
2023-01-09T11:44:00.538Z,97099.06
2023-01-09T11:46:35.658Z,97106.84
2023-01-09T11:49:24.139Z,97093.63
2023-01-09T11:52:16.381Z,97095.81
2023-01-09T11:54:54.202Z,97099.97
2023-01-09T11:57:23.119Z,97103.56
2023-01-09T11:59:51.182Z,97104.00
2023-01-09T12:02:35.209Z,97101.94
2023-01-09T12:05:17.508Z,97101.25
2023-01-09T12:07:48.064Z,97098.91
2023-01-09T12:10:30.799Z,97095.69
2023-01-09T12:13:18.359Z,97094.19
2023-01-09T12:16:03.697Z,97098.22
2023-01-09T12:18:34.341Z,97099.59
2023-01-09T12:21:12.170Z,97097.94
2023-01-09T12:24:09.430Z,97088.38
2023-01-09T12:27:08.018Z,97095.56
2023-01-09T12:29:49.353Z,97093.34
2023-01-09T12:32:28.565Z,97100.84
2023-01-09T12:35:06.392Z,97090.19
2023-01-09T12:37:46.675Z,97091.53
2023-01-09T12:40:17.060Z,97085.88
2023-01-09T12:43:02.074Z,97091.53
2023-01-09T12:45:44.388Z,97086.16
2023-01-09T12:48:40.832Z,97099.72
2023-01-09T12:51:11.203Z,97098.63
2023-01-09T12:54:08.301Z,97098.59
2023-01-09T12:56:49.219Z,97099.59
2023-01-09T12:59:41.895Z,97105.22
2023-01-09T13:02:36.633Z,97108.00
2023-01-09T13:05:26.631Z,97107.56
2023-01-09T13:08:19.917Z,97109.22
2023-01-09T13:10:57.598Z,97126.31
2023-01-09T13:13:34.658Z,97105.53
2023-01-09T13:16:09.679Z,97104.38
2023-01-09T13:19:07.925Z,97104.25
2023-01-09T13:21:35.418Z,97093.19
2023-01-09T13:24:13.677Z,97087.28
2023-01-09T13:26:53.826Z,97083.00
2023-01-09T13:29:48.416Z,97080.59
2023-01-09T13:32:30.797Z,97085.56
2023-01-09T13:34:58.510Z,97094.38
2023-01-09T13:37:34.643Z,97093.00
2023-01-09T13:40:04.876Z,97100.19
2023-01-09T13:42:46.272Z,97108.19
2023-01-09T13:45:26.007Z,97118.47
2023-01-09T13:48:14.411Z,97111.56
2023-01-09T13:50:43.308Z,97104.69
2023-01-09T13:53:19.422Z,97093.91
2023-01-09T13:55:58.983Z,97091.28
2023-01-09T13:58:55.973Z,97087.91
2023-01-09T14:01:35.985Z,97086.72
2023-01-09T14:04:21.468Z,97084.41
2023-01-09T14:07:14.492Z,97097.41
2023-01-09T14:09:48.766Z,97113.88
2023-01-09T14:12:16.401Z,97115.78
2023-01-09T14:14:45.963Z,97116.34
2023-01-09T14:17:19.293Z,97127.47
2023-01-09T14:19:46.749Z,97135.22
2023-01-09T14:22:45.436Z,97142.66
2023-01-09T14:25:25.901Z,97154.16
2023-01-09T14:27:59.161Z,97160.44
2023-01-09T14:30:26.443Z,97159.16
2023-01-09T14:33:02.358Z,97192.91
2023-01-09T14:35:46.577Z,97174.91
2023-01-09T14:38:32.796Z,97178.72
2023-01-09T14:41:19.116Z,97165.38
2023-01-09T14:44:06.598Z,97185.94
2023-01-09T14:46:38.680Z,97188.91
2023-01-09T14:49:26.724Z,97200.34
2023-01-09T14:51:54.550Z,97201.91
2023-01-09T14:54:32.105Z,97201.53
2023-01-09T14:57:01.163Z,97204.56
2023-01-09T14:59:28.951Z,97211.81
2023-01-09T15:01:57.740Z,97221.00
2023-01-09T15:04:36.456Z,97221.00
2023-01-09T15:07:04.787Z,97215.91
2023-01-09T15:09:38.088Z,97221.28
2023-01-09T15:12:08.564Z,97224.47
2023-01-09T15:14:40.454Z,97229.59
2023-01-09T15:17:34.871Z,97240.56
2023-01-09T15:20:05.780Z,97243.28
2023-01-09T15:22:36.205Z,97248.75
2023-01-09T15:25:37.781Z,97260.56
2023-01-09T15:28:32.328Z,97256.41
2023-01-09T15:31:20.681Z,97255.44
2023-01-09T15:33:48.731Z,97247.22
2023-01-09T15:36:25.791Z,97236.16
2023-01-09T15:38:53.810Z,97243.78
2023-01-09T15:41:51.106Z,97255.44
2023-01-09T15:44:27.266Z,97281.56
2023-01-09T15:46:58.930Z,97302.28
2023-01-09T15:49:26.686Z,97311.47
2023-01-09T15:51:54.185Z,97315.03
2023-01-09T15:54:35.255Z,97312.19
2023-01-09T15:57:32.935Z,97312.38
2023-01-09T16:00:32.289Z,97322.88
2023-01-09T16:03:12.322Z,97323.53
2023-01-09T16:06:05.532Z,97325.41
2023-01-09T16:08:40.734Z,97326.09
2023-01-09T16:11:10.997Z,97336.06
2023-01-09T16:13:45.770Z,97330.69
2023-01-09T16:16:13.675Z,97334.94
2023-01-09T16:18:51.666Z,97346.72
2023-01-09T16:21:22.174Z,97354.63
2023-01-09T16:23:58.843Z,97357.84
2023-01-09T16:26:28.907Z,97353.91
2023-01-09T16:28:56.346Z,97347.84
2023-01-09T16:31:29.210Z,97354.22
2023-01-09T16:33:59.491Z,97356.97
2023-01-09T16:36:27.580Z,97363.41
2023-01-09T16:38:55.831Z,97378.78
2023-01-09T16:41:42.244Z,97378.63
2023-01-09T16:44:10.653Z,97391.72
2023-01-09T16:46:41.536Z,97392.13
2023-01-09T16:49:16.840Z,97390.75
2023-01-09T16:51:44.273Z,97385.75
2023-01-09T16:54:11.734Z,97390.09
2023-01-09T16:56:40.677Z,97395.09
2023-01-09T16:59:15.457Z,97400.81
2023-01-09T17:01:43.505Z,97396.16
2023-01-09T17:04:15.190Z,97400.50
2023-01-09T17:06:43.067Z,97399.09
2023-01-09T17:09:15.301Z,97394.41
2023-01-09T17:11:43.002Z,97395.41
2023-01-09T17:14:12.328Z,97400.84
2023-01-09T17:16:43.186Z,97401.88
2023-01-09T17:19:17.193Z,97401.88
2023-01-09T17:21:44.557Z,97409.41
2023-01-09T17:24:30.646Z,97413.81
2023-01-09T17:27:17.024Z,97413.72
2023-01-09T17:29:44.612Z,97411.84
2023-01-09T17:32:16.755Z,97417.69
2023-01-09T17:34:44.231Z,97410.94
2023-01-09T17:37:16.906Z,97420.84
2023-01-09T17:39:45.178Z,97421.44
2023-01-09T17:42:12.679Z,97418.44
2023-01-09T17:44:40.159Z,97413.50
2023-01-09T17:47:10.418Z,97415.63
2023-01-09T17:49:37.883Z,97429.66
2023-01-09T17:52:05.336Z,97428.75
2023-01-09T17:54:32.607Z,97430.00
2023-01-09T17:57:00.898Z,97434.81
2023-01-09T17:59:30.212Z,97428.22
2023-01-09T18:01:57.680Z,97435.84
2023-01-09T18:04:25.097Z,97440.75
2023-01-09T18:06:54.472Z,97435.50
2023-01-09T18:09:21.825Z,97438.88
2023-01-09T18:11:49.196Z,97439.59
2023-01-09T18:14:17.510Z,97448.38
2023-01-09T18:16:45.417Z,97453.53
2023-01-09T18:19:13.023Z,97459.72
2023-01-09T18:21:40.353Z,97458.53
2023-01-09T18:24:08.487Z,97464.94
2023-01-09T18:26:35.760Z,97468.19
2023-01-09T18:29:03.714Z,97479.94
2023-01-09T18:31:31.358Z,97479.06
2023-01-09T18:34:02.210Z,97485.16
2023-01-09T18:36:30.191Z,97487.16
2023-01-09T18:39:01.977Z,97495.13
2023-01-09T18:41:30.017Z,97502.31
2023-01-09T18:43:59.071Z,97511.13
2023-01-09T18:46:30.776Z,97517.19
2023-01-09T18:49:03.043Z,97516.91
2023-01-09T18:51:31.935Z,97520.59
2023-01-09T18:53:58.963Z,97519.00
2023-01-09T18:56:26.322Z,97529.81
2023-01-09T18:58:57.995Z,97535.34
2023-01-09T19:01:29.493Z,97549.38
2023-01-09T19:03:58.349Z,97556.81
2023-01-09T19:06:27.472Z,97567.59
2023-01-09T19:08:55.049Z,97577.97
2023-01-09T19:11:22.369Z,97577.84
2023-01-09T19:13:50.612Z,97578.28
2023-01-09T19:16:18.575Z,97592.13
2023-01-09T19:18:45.945Z,97588.63
2023-01-09T19:21:20.348Z,97600.88
2023-01-09T19:23:48.445Z,97610.31
2023-01-09T19:26:27.958Z,97608.34
2023-01-09T19:28:58.169Z,97611.78
2023-01-09T19:31:28.292Z,97625.72
2023-01-09T19:33:56.861Z,97629.59
2023-01-09T19:36:24.223Z,97624.06
2023-01-09T19:38:57.032Z,97621.53
2023-01-09T19:41:24.035Z,97625.94
2023-01-09T19:43:51.132Z,97633.34
2023-01-09T19:46:24.121Z,97637.75
2023-01-09T19:48:52.737Z,97642.84
2023-01-09T19:51:21.558Z,97644.66
2023-01-09T19:53:54.474Z,97648.00
2023-01-09T19:56:24.431Z,97654.38
2023-01-09T19:58:58.769Z,97660.84
2023-01-09T20:01:36.110Z,97668.50
2023-01-09T20:04:10.046Z,97666.94
2023-01-09T20:06:41.696Z,97674.69
2023-01-09T20:09:11.143Z,97687.03
2023-01-09T20:11:44.662Z,97680.75
2023-01-09T20:14:14.207Z,97678.97
2023-01-09T20:16:42.549Z,97683.47
2023-01-09T20:19:12.482Z,97682.44
2023-01-09T20:21:39.629Z,97686.41
2023-01-09T20:24:07.753Z,97680.84
2023-01-09T20:26:37.043Z,97690.16
2023-01-09T20:29:04.800Z,97696.00
2023-01-09T20:31:32.992Z,97705.09
2023-01-09T20:34:00.571Z,97708.75
2023-01-09T20:36:30.273Z,97714.31
2023-01-09T20:39:00.459Z,97709.09
2023-01-09T20:41:29.416Z,97721.34
2023-01-09T20:44:00.445Z,97720.22
2023-01-09T20:46:35.323Z,97720.22
2023-01-09T20:49:03.514Z,97731.59
2023-01-09T20:51:31.273Z,97729.66
2023-01-09T20:53:58.737Z,97729.84
2023-01-09T20:56:28.036Z,97735.50
2023-01-09T20:58:56.367Z,97740.19
2023-01-09T21:01:24.380Z,97743.56
2023-01-09T21:03:53.166Z,97751.81
2023-01-09T21:06:23.088Z,97754.31
2023-01-09T21:08:53.004Z,97757.34
2023-01-09T21:11:21.952Z,97764.72
2023-01-09T21:13:49.800Z,97764.34
2023-01-09T21:16:21.444Z,97760.81
2023-01-09T21:18:49.127Z,97761.00
2023-01-09T21:21:24.236Z,97762.38
2023-01-09T21:23:54.205Z,97766.88
2023-01-09T21:26:26.034Z,97780.50
2023-01-09T21:28:55.304Z,97774.44
2023-01-09T21:31:28.599Z,97781.66
2023-01-09T21:33:55.571Z,97773.00
2023-01-09T21:36:23.154Z,97777.88
2023-01-09T21:38:53.433Z,97782.91
2023-01-09T21:41:40.092Z,97779.81
2023-01-09T21:44:30.079Z,97788.81
2023-01-09T21:46:59.785Z,97785.22
2023-01-09T21:49:30.876Z,97787.31
2023-01-09T21:51:57.898Z,97788.47
2023-01-09T21:54:25.286Z,97792.53
2023-01-09T21:56:52.999Z,97795.84
2023-01-09T21:59:19.983Z,97804.81
2023-01-09T22:01:49.041Z,97816.03
2023-01-09T22:04:19.359Z,97818.44
2023-01-09T22:06:46.410Z,97820.69
2023-01-09T22:09:13.957Z,97828.81
2023-01-09T22:11:43.209Z,97817.69
2023-01-09T22:14:16.992Z,97822.06
2023-01-09T22:16:47.512Z,97827.50
2023-01-09T22:19:19.085Z,97833.84
2023-01-09T22:21:46.738Z,97833.84
2023-01-09T22:24:16.845Z,97835.34
2023-01-09T22:26:44.719Z,97851.53
2023-01-09T22:29:11.680Z,97854.31
2023-01-09T22:31:40.030Z,97862.44
2023-01-09T22:34:07.260Z,97867.53
2023-01-09T22:36:34.299Z,97871.53
2023-01-09T22:39:01.429Z,97876.75
2023-01-09T22:41:32.296Z,97881.72
2023-01-09T22:43:59.826Z,97886.75
2023-01-09T22:46:26.841Z,97891.16
2023-01-09T22:48:53.845Z,97881.63
2023-01-09T22:51:21.852Z,97889.28
2023-01-09T22:53:49.577Z,97899.97
2023-01-09T22:56:20.447Z,97896.09
2023-01-09T22:58:52.792Z,97902.19
2023-01-09T23:01:20.997Z,97909.56
2023-01-09T23:03:48.391Z,97908.16
2023-01-09T23:06:19.352Z,97909.38
2023-01-09T23:08:47.795Z,97909.00
2023-01-09T23:11:40.736Z,97918.63
2023-01-09T23:14:07.684Z,97919.84
2023-01-09T23:16:34.806Z,97928.72
2023-01-09T23:19:02.020Z,97920.28
2023-01-09T23:21:29.027Z,97928.81
2023-01-09T23:23:55.998Z,97935.44
2023-01-09T23:26:22.942Z,97932.00
2023-01-09T23:28:49.980Z,97947.41
2023-01-09T23:31:16.926Z,97948.81
2023-01-09T23:33:43.920Z,97949.69
2023-01-09T23:36:10.891Z,97942.00
2023-01-09T23:38:39.020Z,97948.44
2023-01-09T23:41:07.249Z,97943.84
2023-01-09T23:43:34.215Z,97947.22
2023-01-09T23:46:01.605Z,97959.19
2023-01-09T23:48:28.655Z,97953.50
2023-01-09T23:50:55.664Z,97954.25
2023-01-09T23:53:23.358Z,97964.91
2023-01-09T23:55:55.170Z,97965.28
2023-01-09T23:58:22.430Z,97964.78
